createdAt,value
2019-04-27T00:02:29.386Z,35.40
2019-04-27T00:05:47.412Z,39.90
2019-04-27T00:08:39.217Z,36.80
2019-04-27T00:11:42.183Z,57.70
2019-04-27T00:14:14.927Z,72.53
2019-04-27T00:17:12.941Z,58.77
2019-04-27T00:19:51.273Z,44.50
2019-04-27T00:22:35.168Z,40.50
2019-04-27T00:25:08.155Z,32.63
2019-04-27T00:27:40.489Z,34.37
2019-04-27T00:30:14.354Z,36.07
2019-04-27T00:32:46.979Z,31.70
2019-04-27T00:35:25.670Z,34.13
2019-04-27T00:38:29.195Z,34.00
2019-04-27T00:41:11.221Z,33.87
2019-04-27T00:43:44.848Z,40.03
2019-04-27T00:46:17.791Z,40.13
2019-04-27T00:48:49.311Z,38.57
2019-04-27T00:51:23.055Z,40.27
2019-04-27T00:53:56.969Z,44.17
2019-04-27T00:56:42.889Z,44.90
2019-04-27T00:59:33.561Z,49.83
2019-04-27T01:02:29.215Z,44.07
2019-04-27T01:05:03.764Z,45.60
2019-04-27T01:07:36.681Z,50.10
2019-04-27T01:10:09.403Z,50.20
2019-04-27T01:12:42.994Z,52.97
2019-04-27T01:15:15.908Z,58.07
2019-04-27T01:17:49.495Z,55.33
2019-04-27T01:20:21.450Z,49.30
2019-04-27T01:22:53.988Z,59.43
2019-04-27T01:25:30.568Z,57.87
2019-04-27T01:28:20.640Z,53.97
2019-04-27T01:30:57.030Z,62.43
2019-04-27T01:33:30.299Z,53.30
2019-04-27T01:36:03.276Z,59.67
2019-04-27T01:38:47.359Z,56.00
2019-04-27T01:41:19.691Z,53.33
2019-04-27T01:43:52.097Z,50.47
2019-04-27T01:46:23.932Z,51.67
2019-04-27T01:48:56.249Z,51.30
2019-04-27T01:51:29.453Z,50.30
2019-04-27T01:54:02.586Z,46.53
2019-04-27T01:56:34.504Z,47.67
2019-04-27T01:59:08.615Z,48.03
2019-04-27T02:01:58.821Z,48.50
2019-04-27T02:04:41.802Z,42.83
2019-04-27T02:07:13.702Z,39.83
2019-04-27T02:09:46.693Z,40.00
2019-04-27T02:12:19.266Z,38.90
2019-04-27T02:14:51.314Z,41.07
2019-04-27T02:17:23.794Z,46.27
2019-04-27T02:19:55.783Z,41.80
2019-04-27T02:22:29.744Z,43.27
2019-04-27T02:25:02.658Z,46.13
2019-04-27T02:27:36.833Z,40.27
2019-04-27T02:30:33.420Z,43.23
2019-04-27T02:33:30.302Z,36.87
2019-04-27T02:36:02.861Z,43.60
2019-04-27T02:38:34.346Z,46.77
2019-04-27T02:41:06.908Z,41.13
2019-04-27T02:44:19.823Z,40.20
2019-04-27T02:46:51.790Z,38.37
2019-04-27T02:49:23.243Z,35.77
2019-04-27T02:52:13.190Z,45.80
2019-04-27T02:54:45.131Z,52.20
2019-04-27T02:57:19.460Z,55.80
2019-04-27T02:59:50.620Z,53.00
2019-04-27T03:02:30.390Z,48.30
2019-04-27T03:05:02.624Z,47.57
2019-04-27T03:07:34.982Z,37.37
2019-04-27T03:10:09.699Z,40.80
2019-04-27T03:12:46.035Z,46.30
2019-04-27T03:15:49.486Z,46.40
2019-04-27T03:18:50.727Z,45.37
2019-04-27T03:21:29.717Z,42.00
2019-04-27T03:24:01.631Z,42.40
2019-04-27T03:26:50.043Z,40.97
2019-04-27T03:29:23.133Z,50.23
2019-04-27T03:31:54.743Z,46.40
2019-04-27T03:34:31.613Z,45.43
2019-04-27T03:37:01.461Z,39.33
2019-04-27T03:39:35.731Z,46.23
2019-04-27T03:42:10.492Z,63.03
2019-04-27T03:44:44.020Z,59.13
2019-04-27T03:47:15.985Z,55.47
2019-04-27T03:49:50.621Z,58.47
2019-04-27T03:52:30.526Z,49.80
2019-04-27T03:55:27.400Z,54.47
2019-04-27T03:58:30.564Z,64.43
2019-04-27T04:01:02.183Z,56.17
2019-04-27T04:03:33.972Z,60.63
2019-04-27T04:06:05.907Z,74.63
2019-04-27T04:08:39.712Z,68.30
2019-04-27T04:11:21.154Z,64.10
2019-04-27T04:13:59.993Z,50.60
2019-04-27T04:16:59.176Z,48.63
2019-04-27T04:19:47.433Z,37.90
2019-04-27T04:22:04.140Z,44.00
2019-04-27T04:24:39.574Z,44.97
2019-04-27T04:27:11.588Z,52.20
2019-04-27T04:29:43.555Z,44.70
2019-04-27T04:32:15.427Z,40.30
2019-04-27T04:34:50.077Z,42.70
2019-04-27T04:37:21.756Z,48.70
2019-04-27T04:39:54.176Z,46.23
2019-04-27T04:42:36.271Z,42.90
2019-04-27T04:45:33.649Z,44.83
2019-04-27T04:48:13.126Z,44.80
2019-04-27T04:50:49.938Z,35.90
2019-04-27T04:53:22.944Z,46.07
2019-04-27T04:55:55.587Z,57.27
2019-04-27T04:58:29.448Z,45.17
2019-04-27T05:01:02.002Z,49.97
2019-04-27T05:03:35.392Z,90.87
2019-04-27T05:06:09.632Z,84.13
2019-04-27T05:08:44.130Z,94.10
2019-04-27T05:11:16.558Z,82.43
2019-04-27T05:13:49.804Z,81.50
2019-04-27T05:16:22.678Z,89.90
2019-04-27T05:18:55.162Z,62.80
2019-04-27T05:21:35.089Z,79.33
2019-04-27T05:24:09.483Z,82.97
2019-04-27T05:26:43.938Z,85.73
2019-04-27T05:29:16.115Z,95.90
2019-04-27T05:31:49.563Z,90.50
2019-04-27T05:34:22.346Z,88.33
2019-04-27T05:36:54.644Z,92.27
2019-04-27T05:39:26.562Z,92.17
2019-04-27T05:42:00.085Z,109.20
2019-04-27T05:45:19.987Z,92.50
2019-04-27T05:48:10.618Z,73.63
2019-04-27T05:50:45.704Z,104.83
2019-04-27T05:53:16.899Z,81.93
2019-04-27T05:55:49.922Z,66.83
2019-04-27T05:58:23.710Z,58.10
2019-04-27T06:00:59.316Z,54.07
2019-04-27T06:03:33.094Z,58.00
2019-04-27T06:06:06.647Z,60.13
2019-04-27T06:08:39.269Z,54.17
2019-04-27T06:11:13.207Z,53.77
2019-04-27T06:13:46.136Z,48.33
2019-04-27T06:16:19.486Z,44.43
2019-04-27T06:18:53.051Z,46.93
2019-04-27T06:21:29.349Z,51.03
2019-04-27T06:24:01.453Z,48.77
2019-04-27T06:26:34.839Z,54.63
2019-04-27T06:29:09.461Z,50.90
2019-04-27T06:31:43.967Z,46.80
2019-04-27T06:34:17.007Z,55.07
2019-04-27T06:36:50.314Z,46.70
2019-04-27T06:39:23.157Z,47.30
2019-04-27T06:41:59.054Z,44.20
2019-04-27T06:44:31.455Z,41.20
2019-04-27T06:47:04.506Z,39.43
2019-04-27T06:49:37.191Z,45.67
2019-04-27T06:52:11.394Z,40.10
2019-04-27T06:54:43.943Z,39.70
2019-04-27T06:57:17.119Z,40.83
2019-04-27T06:59:51.347Z,35.97
2019-04-27T07:02:23.673Z,35.23
2019-04-27T07:04:55.638Z,39.67
2019-04-27T07:07:29.527Z,31.17
2019-04-27T07:10:02.443Z,28.43
2019-04-27T07:12:35.815Z,37.97
2019-04-27T07:15:09.496Z,39.10
2019-04-27T07:17:41.192Z,31.93
2019-04-27T07:20:15.139Z,34.57
2019-04-27T07:22:49.647Z,36.83
2019-04-27T07:25:22.634Z,27.43
2019-04-27T07:27:54.585Z,36.37
2019-04-27T07:30:29.306Z,30.50
2019-04-27T07:33:04.013Z,34.20
2019-04-27T07:35:36.443Z,35.57
2019-04-27T07:38:09.953Z,23.00
2019-04-27T07:40:42.916Z,20.27
2019-04-27T07:43:43.094Z,23.60
2019-04-27T07:46:15.630Z,21.93
2019-04-27T07:48:50.890Z,27.80
2019-04-27T07:51:32.182Z,22.87
2019-04-27T07:53:58.989Z,30.83
2019-04-27T07:56:33.984Z,26.03
2019-04-27T07:59:08.918Z,21.27
2019-04-27T08:01:41.343Z,21.33
2019-04-27T08:04:14.117Z,20.13
2019-04-27T08:06:47.039Z,19.23
2019-04-27T08:09:20.823Z,20.20
2019-04-27T08:11:53.212Z,20.17
2019-04-27T08:14:24.993Z,20.73
2019-04-27T08:16:58.655Z,21.33
2019-04-27T08:19:32.644Z,19.80
2019-04-27T08:22:05.530Z,31.30
2019-04-27T08:24:39.572Z,25.07
2019-04-27T08:27:30.532Z,22.73
2019-04-27T08:33:19.144Z,23.37
2019-04-27T08:35:52.924Z,21.10
2019-04-27T08:38:28.920Z,28.00
2019-04-27T08:41:03.233Z,28.00
2019-04-27T08:43:39.046Z,23.60
2019-04-27T08:46:11.809Z,20.37
2019-04-27T08:48:44.107Z,24.80
2019-04-27T08:51:16.967Z,24.67
2019-04-27T08:53:50.279Z,24.10
2019-04-27T08:56:23.259Z,22.40
2019-04-27T08:58:56.271Z,25.60
2019-04-27T09:01:29.934Z,20.50
2019-04-27T09:04:02.718Z,24.17
2019-04-27T09:06:38.142Z,18.93
2019-04-27T09:09:23.276Z,23.77
2019-04-27T09:12:09.572Z,16.77
2019-04-27T09:14:49.546Z,18.03
2019-04-27T09:17:31.050Z,22.60
2019-04-27T09:20:14.847Z,26.37
2019-04-27T09:22:49.202Z,23.77
2019-04-27T09:25:23.415Z,15.93
2019-04-27T09:27:59.598Z,18.17
2019-04-27T09:30:32.330Z,15.90
2019-04-27T09:33:05.576Z,20.33
2019-04-27T09:35:38.658Z,15.87
2019-04-27T09:38:16.754Z,21.30
2019-04-27T09:40:51.994Z,14.17
2019-04-27T09:43:26.456Z,17.40
2019-04-27T09:45:59.051Z,19.30
2019-04-27T09:48:31.323Z,14.43
2019-04-27T09:51:03.719Z,17.97
2019-04-27T09:53:36.620Z,16.03
2019-04-27T09:56:10.880Z,23.00
2019-04-27T09:58:43.965Z,18.73
2019-04-27T10:01:18.133Z,27.73
2019-04-27T10:03:52.673Z,18.10
2019-04-27T10:06:29.760Z,18.83
2019-04-27T10:09:00.005Z,19.87
2019-04-27T10:11:33.205Z,16.23
2019-04-27T10:14:05.991Z,15.37
2019-04-27T10:16:38.323Z,17.40
2019-04-27T10:19:11.553Z,24.57
2019-04-27T10:21:46.740Z,21.27
2019-04-27T10:24:20.475Z,16.73
2019-04-27T10:26:52.271Z,24.07
2019-04-27T10:29:26.793Z,21.57
2019-04-27T10:32:01.281Z,29.17
2019-04-27T10:34:33.816Z,21.67
2019-04-27T10:37:06.157Z,22.80
2019-04-27T10:39:39.311Z,20.40
2019-04-27T10:42:12.799Z,24.13
2019-04-27T10:44:46.716Z,20.90
2019-04-27T10:47:19.839Z,20.27
2019-04-27T10:49:53.312Z,28.07
2019-04-27T10:52:26.522Z,20.80
2019-04-27T10:54:59.223Z,19.93
2019-04-27T10:57:35.491Z,20.10
2019-04-27T11:00:12.730Z,20.47
2019-04-27T11:02:45.164Z,19.90
2019-04-27T11:05:25.702Z,19.97
2019-04-27T11:08:00.574Z,19.93
2019-04-27T11:10:35.975Z,20.67
2019-04-27T11:13:09.983Z,21.47
2019-04-27T11:15:45.963Z,21.27
2019-04-27T11:18:19.497Z,23.33
2019-04-27T11:20:53.047Z,20.90
2019-04-27T11:23:29.310Z,20.43
2019-04-27T11:26:02.602Z,18.87
2019-04-27T11:28:35.948Z,22.20
2019-04-27T11:31:09.282Z,24.73
2019-04-27T11:33:42.292Z,34.33
2019-04-27T11:36:31.927Z,26.80
2019-04-27T11:39:09.306Z,19.43
2019-04-27T11:41:44.479Z,22.77
2019-04-27T11:44:19.170Z,21.83
2019-04-27T11:46:55.556Z,14.83
2019-04-27T11:49:28.095Z,23.13
2019-04-27T11:52:01.577Z,28.57
2019-04-27T11:54:36.191Z,19.37
2019-04-27T11:57:09.325Z,20.80
2019-04-27T11:59:44.102Z,18.00
2019-04-27T12:02:17.676Z,23.73
2019-04-27T12:04:50.276Z,20.23
2019-04-27T12:07:28.918Z,15.07
2019-04-27T12:10:00.783Z,20.73
2019-04-27T12:12:33.626Z,26.17
2019-04-27T12:15:06.615Z,19.07
2019-04-27T12:17:39.577Z,18.93
2019-04-27T12:20:13.406Z,18.13
2019-04-27T12:22:46.962Z,27.33
2019-04-27T12:25:21.031Z,13.63
2019-04-27T12:28:04.458Z,18.63
2019-04-27T12:30:49.199Z,20.10
2019-04-27T12:33:22.948Z,18.43
2019-04-27T12:35:56.919Z,17.07
2019-04-27T12:38:31.305Z,17.83
2019-04-27T12:41:04.410Z,19.73
2019-04-27T12:43:39.238Z,22.00
2019-04-27T12:46:12.540Z,20.63
2019-04-27T12:48:46.024Z,18.70
2019-04-27T12:51:20.972Z,27.60
2019-04-27T12:54:03.403Z,29.03
2019-04-27T12:56:55.880Z,18.00
2019-04-27T12:59:46.881Z,21.60
2019-04-27T13:02:21.158Z,17.90
2019-04-27T13:04:56.657Z,23.03
2019-04-27T13:07:30.587Z,20.07
2019-04-27T13:10:02.517Z,22.53
2019-04-27T13:12:36.386Z,17.47
2019-04-27T13:15:10.781Z,15.87
2019-04-27T13:17:44.061Z,16.87
2019-04-27T13:20:17.267Z,16.07
2019-04-27T13:22:51.040Z,20.83
2019-04-27T13:25:23.865Z,16.03
2019-04-27T13:27:58.037Z,20.20
2019-04-27T13:30:32.354Z,14.27
2019-04-27T13:33:05.990Z,18.63
2019-04-27T13:35:39.232Z,13.70
2019-04-27T13:38:13.366Z,18.83
2019-04-27T13:41:06.487Z,18.27
2019-04-27T13:43:40.100Z,13.60
2019-04-27T13:46:29.630Z,16.97
2019-04-27T13:49:24.083Z,18.57
2019-04-27T13:52:29.809Z,13.37
2019-04-27T13:55:12.635Z,18.17
2019-04-27T13:57:50.397Z,17.63
2019-04-27T14:00:22.227Z,13.90
2019-04-27T14:02:55.262Z,15.83
2019-04-27T14:05:28.251Z,13.37
2019-04-27T14:08:00.514Z,10.83
2019-04-27T14:10:34.557Z,15.10
2019-04-27T14:13:26.096Z,13.30
2019-04-27T14:15:59.686Z,15.80
2019-04-27T14:18:33.476Z,20.00
2019-04-27T14:21:06.886Z,14.27
2019-04-27T14:23:41.161Z,16.83
2019-04-27T14:26:14.781Z,12.30
2019-04-27T14:28:48.084Z,14.47
2019-04-27T14:31:22.467Z,13.30
2019-04-27T14:33:55.427Z,15.60
2019-04-27T14:36:29.246Z,15.40
2019-04-27T14:39:04.310Z,17.27
2019-04-27T14:41:39.169Z,13.77
2019-04-27T14:44:12.748Z,16.07
2019-04-27T14:46:46.067Z,11.80
2019-04-27T14:49:19.877Z,20.57
2019-04-27T14:51:54.491Z,13.63
2019-04-27T14:54:30.152Z,15.10
2019-04-27T14:57:04.588Z,12.43
2019-04-27T14:59:38.425Z,18.70
2019-04-27T15:02:12.183Z,12.73
2019-04-27T15:04:50.358Z,19.60
2019-04-27T15:07:22.925Z,13.50
2019-04-27T15:09:57.495Z,15.43
2019-04-27T15:12:32.270Z,13.33
2019-04-27T15:15:03.998Z,16.50
2019-04-27T15:17:40.217Z,14.87
2019-04-27T15:20:22.551Z,13.93
2019-04-27T15:22:58.542Z,24.50
2019-04-27T15:25:35.060Z,14.37
2019-04-27T15:28:12.133Z,12.80
2019-04-27T15:31:22.394Z,22.83
2019-04-27T15:34:02.148Z,20.80
2019-04-27T15:36:45.250Z,19.23
2019-04-27T15:39:30.533Z,18.67
2019-04-27T15:42:08.271Z,21.03
2019-04-27T15:44:42.955Z,17.07
2019-04-27T15:47:17.782Z,26.57
2019-04-27T15:49:54.556Z,29.57
2019-04-27T15:52:30.236Z,17.47
2019-04-27T15:55:11.091Z,28.13
2019-04-27T15:57:56.155Z,20.43
2019-04-27T16:00:30.582Z,15.87
2019-04-27T16:03:05.212Z,19.33
2019-04-27T16:05:39.165Z,30.93
2019-04-27T16:08:15.253Z,21.70
2019-04-27T16:10:45.694Z,18.67
2019-04-27T16:13:19.102Z,21.67
2019-04-27T16:15:54.145Z,19.77
2019-04-27T16:18:31.703Z,23.63
2019-04-27T16:21:07.194Z,19.47
2019-04-27T16:23:43.185Z,14.83
2019-04-27T16:26:18.305Z,35.27
2019-04-27T16:28:53.459Z,38.17
2019-04-27T16:31:30.930Z,51.67
2019-04-27T16:34:08.224Z,38.33
2019-04-27T16:36:43.654Z,36.53
2019-04-27T16:39:20.438Z,29.10
2019-04-27T16:41:54.113Z,29.93
2019-04-27T16:44:27.817Z,34.17
2019-04-27T16:47:02.548Z,44.73
2019-04-27T16:49:38.154Z,27.23
2019-04-27T16:52:16.004Z,20.20
2019-04-27T16:54:53.540Z,24.60
2019-04-27T16:57:21.246Z,29.87
2019-04-27T16:59:57.536Z,28.37
2019-04-27T17:02:28.650Z,31.93
2019-04-27T17:05:01.084Z,34.33
2019-04-27T17:07:37.731Z,37.93
2019-04-27T17:10:09.479Z,35.10
2019-04-27T17:12:45.928Z,37.03
2019-04-27T17:15:35.208Z,36.93
2019-04-27T17:18:45.114Z,28.60
2019-04-27T17:21:23.237Z,23.67
2019-04-27T17:23:56.947Z,32.80
2019-04-27T17:26:29.245Z,26.83
2019-04-27T17:29:16.650Z,19.43
2019-04-27T17:31:54.863Z,22.13
2019-04-27T17:34:26.405Z,31.87
2019-04-27T17:36:59.944Z,38.67
2019-04-27T17:39:34.755Z,42.70
2019-04-27T17:42:09.096Z,35.50
2019-04-27T17:44:42.107Z,34.37
2019-04-27T17:47:15.089Z,19.77
2019-04-27T17:49:55.494Z,27.23
2019-04-27T17:52:30.564Z,30.50
2019-04-27T17:55:03.148Z,26.27
2019-04-27T17:57:35.461Z,30.87
2019-04-27T18:00:11.195Z,26.07
2019-04-27T18:02:44.656Z,28.97
2019-04-27T18:05:18.386Z,27.53
2019-04-27T18:07:51.173Z,35.70
2019-04-27T18:10:24.401Z,33.17
2019-04-27T18:12:58.284Z,34.13
2019-04-27T18:15:34.659Z,34.67
2019-04-27T18:18:27.064Z,33.07
2019-04-27T18:20:58.192Z,74.07
2019-04-27T18:23:33.124Z,53.03
2019-04-27T18:26:27.809Z,56.37
2019-04-27T18:29:02.062Z,40.13
2019-04-27T18:31:35.567Z,35.60
2019-04-27T18:34:09.892Z,24.00
2019-04-27T18:36:43.922Z,22.57
2019-04-27T18:39:18.127Z,21.83
2019-04-27T18:41:54.280Z,25.83
2019-04-27T18:44:29.293Z,41.80
2019-04-27T18:47:02.333Z,43.93
2019-04-27T18:49:50.918Z,39.53
2019-04-27T18:52:46.903Z,37.67
2019-04-27T18:55:16.819Z,33.77
2019-04-27T18:57:50.924Z,29.20
2019-04-27T19:00:23.177Z,37.63
2019-04-27T19:02:58.495Z,35.50
2019-04-27T19:05:39.978Z,32.90
2019-04-27T19:08:06.935Z,34.13
2019-04-27T19:10:45.692Z,30.17
2019-04-27T19:13:19.200Z,38.87
2019-04-27T19:15:54.977Z,44.87
2019-04-27T19:18:39.927Z,27.87
2019-04-27T19:21:13.403Z,28.03
2019-04-27T19:23:45.893Z,32.17
2019-04-27T19:26:46.116Z,31.33
2019-04-27T19:29:26.887Z,32.57
2019-04-27T19:32:00.364Z,36.80
2019-04-27T19:34:32.831Z,57.33
2019-04-27T19:37:05.251Z,48.70
2019-04-27T19:39:39.354Z,31.90
2019-04-27T19:42:12.907Z,25.40
2019-04-27T19:44:52.217Z,27.17
2019-04-27T19:47:25.026Z,27.93
2019-04-27T19:50:00.122Z,29.03
2019-04-27T19:52:33.680Z,26.47
2019-04-27T19:55:10.153Z,30.67
2019-04-27T19:57:42.990Z,22.53
2019-04-27T20:00:34.953Z,27.70
2019-04-27T20:03:23.524Z,26.10
2019-04-27T20:05:56.699Z,37.77
2019-04-27T20:08:31.223Z,24.43
2019-04-27T20:11:07.724Z,27.03
2019-04-27T20:13:44.780Z,35.27
2019-04-27T20:16:22.756Z,27.87
2019-04-27T20:19:01.496Z,41.17
2019-04-27T20:21:47.194Z,27.10
2019-04-27T20:24:41.483Z,40.23
2019-04-27T20:27:32.141Z,28.67
2019-04-27T20:30:27.517Z,32.73
2019-04-27T20:33:04.462Z,43.83
2019-04-27T20:35:50.969Z,31.77
2019-04-27T20:38:34.241Z,25.57
2019-04-27T20:41:11.557Z,26.13
2019-04-27T20:43:46.425Z,31.87
2019-04-27T20:46:24.424Z,27.87
2019-04-27T20:49:05.589Z,27.60
2019-04-27T20:52:23.833Z,21.60
2019-04-27T20:55:05.801Z,29.77
2019-04-27T20:57:58.462Z,22.33
2019-04-27T21:00:21.992Z,26.90
2019-04-27T21:03:12.763Z,27.23
2019-04-27T21:06:04.307Z,28.37
2019-04-27T21:08:41.151Z,23.93
2019-04-27T21:11:15.317Z,28.63
2019-04-27T21:13:49.379Z,23.83
2019-04-27T21:16:22.304Z,29.90
2019-04-27T21:18:54.889Z,31.90
2019-04-27T21:21:28.046Z,31.63
2019-04-27T21:24:02.793Z,28.60
2019-04-27T21:26:36.464Z,30.30
2019-04-27T21:29:11.563Z,28.90
2019-04-27T21:31:46.076Z,26.57
2019-04-27T21:34:19.962Z,37.10
2019-04-27T21:36:55.645Z,34.67
2019-04-27T21:39:29.227Z,32.77
2019-04-27T21:44:48.243Z,47.23
2019-04-27T21:47:21.711Z,36.27
2019-04-27T21:49:58.546Z,47.00
2019-04-27T21:55:13.770Z,36.90
2019-04-27T21:57:47.004Z,31.20
2019-04-27T22:00:48.406Z,33.07
2019-04-27T22:03:26.329Z,31.43
2019-04-27T22:05:58.760Z,29.07
2019-04-27T22:08:33.310Z,26.73
2019-04-27T22:11:07.006Z,28.23
2019-04-27T22:13:40.845Z,28.73
2019-04-27T22:16:14.240Z,28.73
2019-04-27T22:18:47.813Z,31.73
2019-04-27T22:21:22.772Z,27.17
2019-04-27T22:24:02.982Z,25.63
2019-04-27T22:26:36.603Z,28.50
2019-04-27T22:29:12.058Z,23.43
2019-04-27T22:31:45.623Z,27.43
2019-04-27T22:34:18.104Z,24.17
2019-04-27T22:36:51.197Z,28.57
2019-04-27T22:39:40.574Z,28.07
2019-04-27T22:42:31.285Z,35.53
2019-04-27T22:45:12.667Z,36.53
2019-04-27T22:47:46.399Z,37.17
2019-04-27T22:50:21.029Z,35.87
2019-04-27T22:52:53.557Z,35.13
2019-04-27T22:55:28.384Z,41.40
2019-04-27T22:58:07.719Z,34.07
2019-04-27T23:00:59.102Z,28.80
2019-04-27T23:03:34.938Z,31.97
2019-04-27T23:06:08.663Z,27.77
2019-04-27T23:08:41.559Z,35.73
2019-04-27T23:11:14.010Z,30.83
2019-04-27T23:13:48.030Z,31.83
2019-04-27T23:16:21.934Z,28.20
2019-04-27T23:18:54.370Z,36.63
2019-04-27T23:21:27.336Z,33.07
2019-04-27T23:24:01.716Z,32.17
2019-04-27T23:26:33.830Z,35.70
2019-04-27T23:29:13.745Z,31.90
2019-04-27T23:31:53.359Z,27.60
2019-04-27T23:34:26.733Z,27.93
2019-04-27T23:37:00.505Z,25.53
2019-04-27T23:39:34.484Z,20.87
2019-04-27T23:42:08.135Z,21.70
2019-04-27T23:44:40.093Z,26.90
2019-04-27T23:47:14.144Z,23.77
2019-04-27T23:49:47.184Z,25.80
2019-04-27T23:52:24.887Z,21.53
2019-04-27T23:54:57.413Z,29.37
2019-04-27T23:57:29.246Z,30.30
